Time;durP1;ratioP1;P1;durP2;ratioP2;P2;SDS_P1;SDS_P2;PMS_P1;PMS_P2;Temp;Humidity;BMP_temperature;BMP_pressure;BME280_temperature;BME280_humidity;BME280_pressure;Samples;Min_cycle;Max_cycle;Signal;HPM_P1;HPM_P2
2021/03/06 00:00:56;;;;;;;4.82;0.60;;;-0.10;83.30;;;;;;5088910;28;20040;-75
2021/03/06 00:03:22;;;;;;;8.73;0.77;;;-0.10;83.20;;;;;;5088619;28;20224;-75
2021/03/06 00:05:48;;;;;;;5.07;1.50;;;-0.20;83.10;;;;;;5054540;28;20055;-75
2021/03/06 00:08:14;;;;;;;5.82;1.15;;;-0.20;83.50;;;;;;5088913;28;20123;-75
2021/03/06 00:10:40;;;;;;;6.20;0.82;;;-0.20;83.30;;;;;;5041694;28;20388;-75
2021/03/06 00:13:05;;;;;;;5.82;0.90;;;-0.20;83.20;;;;;;5054556;28;20040;-75
2021/03/06 00:15:32;;;;;;;4.32;0.52;;;-0.30;83.40;;;;;;5071110;28;20075;-75
2021/03/06 00:17:57;;;;;;;2.25;0.65;;;-0.30;83.00;;;;;;5088790;28;20136;-75
2021/03/06 00:20:23;;;;;;;9.23;1.35;;;-0.30;82.80;;;;;;5062599;28;20044;-75
2021/03/06 00:22:53;;;;;;;8.98;0.82;;;-0.40;82.90;;;;;;5039214;28;20135;-75
2021/03/06 00:25:19;;;;;;;9.57;0.50;;;-0.30;82.70;;;;;;5067367;28;20035;-75
2021/03/06 00:27:45;;;;;;;8.32;1.40;;;-0.40;83.10;;;;;;5088146;28;20044;-75
2021/03/06 00:30:14;;;;;;;7.70;0.95;;;-0.40;83.70;;;;;;5079327;28;20036;-75
2021/03/06 00:32:40;;;;;;;8.77;1.33;;;-0.30;83.20;;;;;;5082934;28;20093;-75
2021/03/06 00:35:07;;;;;;;7.93;0.60;;;-0.30;83.70;;;;;;5067981;28;20109;-75
2021/03/06 00:37:34;;;;;;;5.43;1.23;;;-0.30;83.60;;;;;;5068973;28;20070;-75
2021/03/06 00:40:00;;;;;;;3.80;1.05;;;-0.20;84.40;;;;;;5070582;28;20040;-75
2021/03/06 00:42:26;;;;;;;3.22;0.90;;;-0.20;84.90;;;;;;5065356;28;20252;-75
2021/03/06 00:44:52;;;;;;;5.82;0.85;;;-0.10;84.90;;;;;;5059066;28;20036;-75
2021/03/06 00:47:18;;;;;;;4.57;0.57;;;0.00;85.00;;;;;;5070686;28;20097;-75
2021/03/06 00:49:44;;;;;;;3.15;0.55;;;0.00;85.30;;;;;;5070316;28;20458;-75
2021/03/06 00:52:10;;;;;;;3.05;0.50;;;0.10;85.80;;;;;;5056059;28;20036;-75
2021/03/06 00:54:36;;;;;;;5.20;0.50;;;0.10;85.20;;;;;;5088453;28;20044;-75
2021/03/06 00:57:05;;;;;;;13.13;1.20;;;0.20;85.70;;;;;;5070283;28;20044;-75
2021/03/06 00:59:31;;;;;;;9.13;1.13;;;0.20;85.90;;;;;;5066375;28;20048;-75
2021/03/06 01:01:57;;;;;;;5.75;1.45;;;0.30;85.70;;;;;;5071128;28;20042;-75
2021/03/06 01:04:23;;;;;;;2.85;0.50;;;0.30;85.90;;;;;;5071357;28;20408;-75
2021/03/06 01:06:49;;;;;;;3.65;0.65;;;0.40;85.90;;;;;;5054127;28;20048;-75
2021/03/06 01:09:15;;;;;;;9.82;0.70;;;0.40;85.50;;;;;;5054132;28;20506;-75
2021/03/06 01:11:41;;;;;;;7.72;1.08;;;0.40;86.10;;;;;;5080987;28;20044;-75
2021/03/06 01:14:06;;;;;;;7.00;0.65;;;0.50;86.10;;;;;;5078047;28;20051;-75
2021/03/06 01:16:32;;;;;;;9.63;0.52;;;0.50;85.80;;;;;;5070928;28;20051;-75
2021/03/06 01:18:58;;;;;;;5.53;0.70;;;0.50;86.30;;;;;;5071896;28;20048;-75
2021/03/06 01:21:24;;;;;;;4.97;0.50;;;0.60;86.10;;;;;;5054552;28;20172;-75
2021/03/06 01:23:50;;;;;;;7.68;1.55;;;0.60;86.50;;;;;;5091849;28;20058;-75
2021/03/06 01:26:16;;;;;;;2.30;0.60;;;0.70;86.50;;;;;;5073758;28;20044;-75
2021/03/06 01:28:41;;;;;;;9.60;1.20;;;0.70;86.50;;;;;;5069559;28;20044;-75
2021/03/06 01:31:07;;;;;;;3.72;0.52;;;0.70;86.50;;;;;;5083494;28;20076;-75
2021/03/06 01:33:33;;;;;;;5.72;1.83;;;0.80;87.30;;;;;;5073975;28;20393;-75
2021/03/06 01:35:59;;;;;;;7.20;1.48;;;0.80;87.40;;;;;;5091685;28;20436;-75
2021/03/06 01:38:25;;;;;;;3.42;0.63;;;0.80;86.80;;;;;;5067369;28;20071;-75
2021/03/06 01:40:51;;;;;;;2.97;0.85;;;0.80;86.80;;;;;;5071176;28;20839;-75
2021/03/06 01:43:17;;;;;;;2.60;0.90;;;0.90;86.60;;;;;;5088826;28;20044;-75
2021/03/06 01:45:43;;;;;;;5.68;0.70;;;0.90;86.50;;;;;;5091427;28;20090;-75
2021/03/06 01:48:10;;;;;;;8.18;0.90;;;0.90;86.50;;;;;;5091225;28;20313;-75
2021/03/06 01:50:42;;;;;;;7.18;0.95;;;0.90;87.30;;;;;;5057452;28;20337;-76
2021/03/06 01:53:10;;;;;;;6.43;0.47;;;0.90;86.90;;;;;;5091130;28;20046;-75
2021/03/06 01:55:38;;;;;;;3.25;0.75;;;0.90;87.10;;;;;;5077037;28;20053;-75
2021/03/06 01:58:05;;;;;;;10.30;1.13;;;1.00;87.00;;;;;;5033208;28;20048;-75
2021/03/06 02:00:32;;;;;;;5.70;1.58;;;1.00;87.30;;;;;;5057927;28;20217;-75
2021/03/06 02:02:59;;;;;;;7.60;0.77;;;1.00;87.40;;;;;;5071288;28;20040;-75
2021/03/06 02:05:25;;;;;;;9.50;1.05;;;1.00;87.00;;;;;;5070498;28;20040;-75
2021/03/06 02:07:51;;;;;;;6.13;0.65;;;1.00;87.20;;;;;;5048050;28;20139;-75
2021/03/06 02:10:25;;;;;;;5.55;1.63;;;1.10;87.10;;;;;;5071856;28;20111;-75
2021/03/06 02:13:28;;;;;;;10.68;0.60;;;1.10;87.90;;;;;;5074605;28;20072;-75
2021/03/06 02:16:08;;;;;;;3.50;0.88;;;1.10;87.60;;;;;;5084901;28;20036;-75
2021/03/06 02:18:49;;;;;;;5.07;1.27;;;1.20;87.70;;;;;;5071530;28;20044;-75
2021/03/06 02:21:34;;;;;;;4.82;1.23;;;1.20;87.30;;;;;;5076837;28;20343;-75
2021/03/06 02:24:32;;;;;;;6.93;0.55;;;1.20;87.60;;;;;;5072662;28;20040;-75
2021/03/06 02:27:13;;;;;;;4.43;0.50;;;1.20;87.60;;;;;;5081166;28;20115;-75
2021/03/06 02:29:54;;;;;;;7.35;0.80;;;1.20;88.00;;;;;;5068414;28;20032;-75
2021/03/06 02:32:29;;;;;;;5.60;0.52;;;1.30;88.20;;;;;;5050137;28;20048;-75
2021/03/06 02:35:04;;;;;;;14.05;0.55;;;1.30;88.50;;;;;;5032522;28;20057;-75
2021/03/06 02:37:35;;;;;;;5.10;0.50;;;1.30;87.70;;;;;;5034194;28;20151;-75
2021/03/06 02:40:02;;;;;;;7.55;1.10;;;1.30;87.70;;;;;;5090995;28;20470;-75
2021/03/06 02:42:30;;;;;;;4.65;0.35;;;1.40;87.70;;;;;;5087432;28;20036;-75
2021/03/06 02:44:57;;;;;;;4.70;1.58;;;1.40;87.80;;;;;;5090437;28;20044;-75
2021/03/06 02:47:23;;;;;;;5.50;0.73;;;1.40;88.30;;;;;;5071628;28;20487;-75
2021/03/06 02:49:54;;;;;;;1.27;0.20;;;1.40;88.00;;;;;;5072541;28;20044;-75
2021/03/06 02:52:20;;;;;;;7.18;1.45;;;1.40;87.40;;;;;;5079615;28;20044;-75
2021/03/06 02:54:47;;;;;;;9.45;0.30;;;1.40;87.40;;;;;;5089863;28;20044;-75
2021/03/06 02:57:35;;;;;;;9.93;0.80;;;1.40;88.20;;;;;;5071705;28;20048;-75
2021/03/06 03:00:20;;;;;;;4.25;0.80;;;1.50;87.90;;;;;;5073495;28;20044;-75
2021/03/06 03:02:46;;;;;;;;;;;1.40;87.70;;;;;;5078279;28;20040;-75
2021/03/06 03:05:30;;;;;;;4.85;0.35;;;1.40;90.40;;;;;;5069285;28;20260;-76
2021/03/06 03:08:10;;;;;;;6.68;0.30;;;1.40;88.80;;;;;;5064440;28;20048;-75
2021/03/06 03:10:48;;;;;;;3.65;0.40;;;1.50;88.40;;;;;;5091051;28;20371;-75
2021/03/06 03:13:25;;;;;;;6.05;0.47;;;1.50;88.10;;;;;;5081332;28;20427;-75
2021/03/06 03:16:20;;;;;;;4.28;1.27;;;1.50;88.20;;;;;;5069400;28;20159;-75
2021/03/06 03:18:59;;;;;;;6.68;1.60;;;1.50;88.20;;;;;;5082809;28;20086;-76
2021/03/06 03:21:28;;;;;;;3.67;0.30;;;1.50;88.40;;;;;;5087534;28;20042;-76
2021/03/06 03:24:06;;;;;;;8.07;0.40;;;1.50;88.70;;;;;;5071599;28;20104;-76
2021/03/06 03:26:36;;;;;;;2.78;0.40;;;1.60;88.50;;;;;;5087990;28;20678;-76
2021/03/06 03:29:03;;;;;;;8.50;1.75;;;1.60;88.40;;;;;;5068921;28;20151;-76
2021/03/06 03:31:29;;;;;;;3.90;0.30;;;1.60;88.00;;;;;;5085936;28;20040;-75
2021/03/06 03:33:55;;;;;;;3.33;0.40;;;1.60;88.20;;;;;;5071222;28;20139;-75
2021/03/06 03:36:23;;;;;;;5.90;0.60;;;1.60;88.00;;;;;;5088909;28;20531;-75
2021/03/06 03:38:52;;;;;;;3.42;0.75;;;1.60;88.00;;;;;;5071238;28;20036;-75
2021/03/06 03:41:18;;;;;;;3.08;0.50;;;1.70;89.60;;;;;;5071180;28;20043;-76
2021/03/06 03:43:45;;;;;;;4.10;0.88;;;1.70;88.40;;;;;;5084988;28;20043;-75
2021/03/06 03:46:11;;;;;;;8.68;0.30;;;1.70;88.50;;;;;;5031760;28;20672;-75
2021/03/06 03:48:41;;;;;;;3.38;0.47;;;1.70;88.40;;;;;;5049354;28;20136;-75
2021/03/06 03:51:08;;;;;;;5.75;0.77;;;1.70;88.00;;;;;;5034922;28;20094;-75
2021/03/06 03:53:33;;;;;;;5.90;0.45;;;1.70;88.30;;;;;;5071514;28;20067;-75
2021/03/06 03:56:01;;;;;;;3.15;0.40;;;1.70;88.50;;;;;;5071291;28;20131;-75
2021/03/06 03:58:30;;;;;;;3.53;0.55;;;1.70;88.40;;;;;;5089344;28;20040;-75
2021/03/06 04:01:01;;;;;;;7.93;0.40;;;1.80;88.90;;;;;;5089318;28;20089;-75
2021/03/06 04:03:30;;;;;;;2.10;0.40;;;1.80;88.10;;;;;;5054110;28;20478;-76
2021/03/06 04:05:57;;;;;;;4.85;0.60;;;1.80;88.10;;;;;;5089095;28;20058;-76
2021/03/06 04:08:23;;;;;;;3.95;0.40;;;1.80;88.10;;;;;;5084004;28;20468;-75
2021/03/06 04:10:48;;;;;;;4.35;0.50;;;1.80;88.30;;;;;;5070511;28;20036;-76
2021/03/06 04:13:14;;;;;;;9.90;0.93;;;1.80;88.10;;;;;;5068035;28;20314;-76
2021/03/06 04:15:40;;;;;;;3.42;0.20;;;1.80;87.80;;;;;;5082544;28;20038;-75
2021/03/06 04:18:06;;;;;;;2.35;0.28;;;1.80;88.70;;;;;;5061155;28;20056;-75
2021/03/06 04:20:33;;;;;;;5.63;0.95;;;1.80;88.50;;;;;;5084531;28;20440;-76
2021/03/06 04:22:59;;;;;;;8.93;0.55;;;1.80;88.40;;;;;;5071237;28;20135;-75
2021/03/06 04:25:26;;;;;;;5.72;0.50;;;1.80;88.70;;;;;;5075989;28;20429;-76
2021/03/06 04:27:51;;;;;;;5.38;0.47;;;1.80;88.60;;;;;;5068196;28;20425;-76
2021/03/06 04:30:18;;;;;;;4.53;1.75;;;1.80;88.50;;;;;;5058353;28;20047;-75
2021/03/06 04:32:44;;;;;;;10.10;1.10;;;1.80;88.70;;;;;;5088528;28;20425;-75
2021/03/06 04:35:11;;;;;;;2.90;0.80;;;1.80;88.40;;;;;;5087469;28;20048;-76
2021/03/06 04:37:38;;;;;;;3.30;0.73;;;1.90;88.30;;;;;;5070486;28;20044;-76
2021/03/06 04:40:09;;;;;;;5.28;0.88;;;1.80;88.50;;;;;;5087456;28;20063;-75
2021/03/06 04:42:35;;;;;;;12.77;1.73;;;1.90;88.40;;;;;;5082425;28;20185;-75
2021/03/06 04:45:02;;;;;;;6.30;0.98;;;1.90;88.70;;;;;;5058756;28;20173;-75
2021/03/06 04:47:28;;;;;;;5.97;0.90;;;1.90;88.70;;;;;;5068347;28;20049;-75
2021/03/06 04:49:54;;;;;;;2.80;0.50;;;1.90;88.80;;;;;;5067997;28;20429;-75
2021/03/06 04:52:20;;;;;;;6.28;0.60;;;1.90;89.00;;;;;;5036675;28;20040;-76
2021/03/06 04:54:45;;;;;;;5.88;0.70;;;1.90;89.20;;;;;;5083251;28;20044;-76
2021/03/06 04:57:12;;;;;;;3.72;0.70;;;1.80;88.60;;;;;;5078238;28;20134;-75
2021/03/06 04:59:42;;;;;;;5.32;0.60;;;1.90;88.50;;;;;;5088201;28;20043;-75
2021/03/06 05:02:09;;;;;;;3.25;0.70;;;1.90;88.50;;;;;;5087939;28;20047;-76
2021/03/06 05:04:35;;;;;;;9.05;0.93;;;1.90;88.40;;;;;;5082652;28;20141;-76
2021/03/06 05:07:00;;;;;;;8.90;0.90;;;1.90;88.60;;;;;;5070526;28;20476;-75
2021/03/06 05:09:26;;;;;;;5.85;0.68;;;1.80;88.60;;;;;;5064725;28;20036;-76
2021/03/06 05:11:53;;;;;;;6.95;0.55;;;1.80;88.80;;;;;;5050402;28;20078;-75
2021/03/06 05:14:19;;;;;;;6.03;0.75;;;1.80;88.40;;;;;;5086151;28;20119;-76
2021/03/06 05:16:45;;;;;;;4.45;0.73;;;1.80;88.60;;;;;;5087831;28;20040;-75
2021/03/06 05:19:11;;;;;;;4.18;0.70;;;1.80;88.50;;;;;;5057383;28;20071;-75
2021/03/06 05:21:37;;;;;;;3.35;0.75;;;1.80;88.80;;;;;;5048168;28;20045;-76
2021/03/06 05:24:04;;;;;;;5.18;0.63;;;1.70;88.60;;;;;;5047249;28;20041;-75
2021/03/06 05:26:30;;;;;;;3.05;1.10;;;1.70;89.80;;;;;;5054101;28;20082;-76
2021/03/06 05:28:56;;;;;;;4.65;0.52;;;1.80;89.60;;;;;;5067611;28;20048;-75
2021/03/06 05:31:22;;;;;;;7.95;0.85;;;1.80;89.50;;;;;;5067837;28;20464;-75
2021/03/06 05:33:48;;;;;;;11.88;0.90;;;1.80;89.40;;;;;;5069898;28;20127;-75
2021/03/06 05:36:14;;;;;;;6.15;0.77;;;1.80;89.10;;;;;;5070019;28;20040;-75
2021/03/06 05:38:39;;;;;;;5.53;0.60;;;1.80;88.90;;;;;;5079093;28;20037;-75
2021/03/06 05:41:05;;;;;;;3.38;1.25;;;1.80;89.20;;;;;;5049648;28;20044;-75
2021/03/06 05:43:31;;;;;;;8.65;1.15;;;1.80;88.90;;;;;;5028055;28;20041;-76
2021/03/06 05:45:58;;;;;;;3.40;0.70;;;1.80;89.50;;;;;;5050664;28;20311;-75
2021/03/06 05:48:23;;;;;;;3.15;0.43;;;1.80;89.10;;;;;;5055770;28;20358;-76
2021/03/06 05:50:51;;;;;;;8.77;1.08;;;1.80;89.40;;;;;;5054934;28;20037;-76
2021/03/06 05:53:20;;;;;;;4.47;1.00;;;1.80;89.30;;;;;;5080684;28;20489;-76
2021/03/06 05:55:56;;;;;;;4.63;1.20;;;1.80;89.10;;;;;;5090585;28;20173;-75
2021/03/06 05:58:22;;;;;;;6.45;1.08;;;1.70;90.00;;;;;;5083596;28;20037;-76
2021/03/06 06:00:50;;;;;;;4.40;1.48;;;1.70;90.00;;;;;;5070256;28;20044;-76
2021/03/06 06:03:17;;;;;;;4.78;0.70;;;1.70;89.50;;;;;;5050550;28;20068;-75
2021/03/06 06:05:46;;;;;;;3.47;0.93;;;1.70;90.00;;;;;;5085075;28;20035;-75
2021/03/06 06:08:14;;;;;;;5.90;0.70;;;1.60;89.20;;;;;;5080414;28;20041;-75
2021/03/06 06:10:40;;;;;;;5.05;1.02;;;1.60;89.50;;;;;;5068711;28;20341;-75
2021/03/06 06:13:05;;;;;;;2.70;0.63;;;1.60;89.10;;;;;;5082399;28;20036;-75
2021/03/06 06:15:32;;;;;;;7.80;0.95;;;1.60;88.60;;;;;;5070575;28;20048;-75
2021/03/06 06:17:58;;;;;;;4.88;0.82;;;1.50;88.20;;;;;;5086739;28;20146;-75
2021/03/06 06:20:24;;;;;;;4.65;1.60;;;1.50;88.20;;;;;;5021761;28;20041;-75
2021/03/06 06:23:12;;;;;;;5.45;0.80;;;1.50;88.30;;;;;;5066839;28;20032;-75
2021/03/06 06:25:38;;;;;;;3.17;1.30;;;1.50;87.80;;;;;;5079838;28;20431;-75
2021/03/06 06:28:06;;;;;;;3.85;0.73;;;1.40;88.30;;;;;;5086182;28;20036;-75
2021/03/06 06:30:32;;;;;;;7.25;2.08;;;1.40;88.00;;;;;;5070300;28;20052;-75
2021/03/06 06:32:59;;;;;;;2.45;1.08;;;1.40;87.90;;;;;;5089407;28;20448;-75
2021/03/06 06:35:25;;;;;;;6.28;0.77;;;1.30;87.70;;;;;;5049207;28;20072;-75
2021/03/06 06:37:58;;;;;;;9.13;1.08;;;1.30;87.70;;;;;;5082700;28;20070;-75
2021/03/06 06:40:26;;;;;;;5.45;0.85;;;1.30;87.50;;;;;;5080590;28;20071;-75
2021/03/06 06:42:52;;;;;;;6.47;1.33;;;1.30;87.60;;;;;;5067719;28;20052;-75
2021/03/06 06:45:18;;;;;;;9.95;1.65;;;1.30;87.60;;;;;;5082631;28;20037;-75
2021/03/06 06:47:46;;;;;;;6.72;0.60;;;1.30;87.70;;;;;;5087183;28;20047;-75
2021/03/06 06:50:13;;;;;;;4.38;0.75;;;1.30;87.60;;;;;;5085445;28;20042;-75
2021/03/06 06:52:41;;;;;;;3.72;1.08;;;1.30;88.10;;;;;;5071311;28;20154;-75
2021/03/06 06:55:10;;;;;;;5.50;1.58;;;1.40;88.10;;;;;;5088339;28;20043;-75
2021/03/06 06:57:54;;;;;;;10.25;1.23;;;1.50;88.20;;;;;;5082387;28;20071;-75
2021/03/06 07:00:20;;;;;;;15.50;2.10;;;1.60;88.30;;;;;;5062951;28;20080;-75
2021/03/06 07:02:52;;;;;;;8.60;1.58;;;1.60;89.50;;;;;;5082417;28;20050;-76
2021/03/06 07:05:35;;;;;;;6.10;0.90;;;1.70;89.20;;;;;;5082716;28;20097;-75
2021/03/06 07:08:07;;;;;;;5.07;1.30;;;1.80;89.30;;;;;;5056164;28;20329;-75
2021/03/06 07:10:41;;;;;;;5.95;1.17;;;1.90;89.50;;;;;;5067038;28;20036;-75
2021/03/06 07:13:09;;;;;;;4.85;0.82;;;2.00;90.10;;;;;;5086900;28;20561;-75
2021/03/06 07:15:40;;;;;;;5.25;0.82;;;2.10;90.40;;;;;;5087048;28;20298;-75
2021/03/06 07:18:08;;;;;;;6.43;0.90;;;2.20;90.00;;;;;;5088877;28;20102;-75
2021/03/06 07:20:36;;;;;;;8.70;2.25;;;2.30;90.10;;;;;;5078429;28;20429;-75
2021/03/06 07:23:31;;;;;;;3.08;0.55;;;2.40;90.10;;;;;;5077293;28;20426;-75
2021/03/06 07:25:59;;;;;;;;;;;2.40;90.20;;;;;;5067178;28;20063;-75
2021/03/06 07:28:25;;;;;;;4.07;1.13;;;2.50;91.30;;;;;;5064271;28;20019;-75
2021/03/06 07:30:51;;;;;;;3.30;1.27;;;2.60;90.50;;;;;;5081280;28;20044;-75
2021/03/06 07:33:18;;;;;;;7.32;0.63;;;2.60;90.30;;;;;;5040493;28;20037;-75
2021/03/06 07:35:46;;;;;;;7.40;0.55;;;2.70;90.70;;;;;;5082802;28;20040;-75
2021/03/06 07:38:16;;;;;;;5.80;0.70;;;2.70;90.50;;;;;;5046586;28;20517;-75
2021/03/06 07:40:46;;;;;;;4.47;0.40;;;2.80;90.30;;;;;;5084988;28;20772;-75
2021/03/06 07:43:25;;;;;;;4.78;0.57;;;2.80;90.40;;;;;;5065619;28;20040;-75
2021/03/06 07:45:52;;;;;;;4.05;0.50;;;2.80;90.70;;;;;;5076569;28;20333;-75
2021/03/06 07:48:19;;;;;;;5.05;1.20;;;2.90;90.70;;;;;;5068405;28;20451;-75
2021/03/06 07:50:52;;;;;;;2.95;0.50;;;3.00;90.50;;;;;;5070604;28;20066;-75
2021/03/06 07:53:19;;;;;;;5.20;0.60;;;3.10;90.40;;;;;;5087555;28;20106;-75
2021/03/06 07:55:46;;;;;;;2.08;0.75;;;3.10;90.70;;;;;;5060513;28;20048;-75
2021/03/06 07:58:13;;;;;;;3.67;0.88;;;3.10;90.40;;;;;;5083139;28;20040;-75
2021/03/06 08:00:40;;;;;;;3.35;0.52;;;3.20;90.30;;;;;;5079547;28;20698;-74
2021/03/06 08:03:33;;;;;;;7.82;1.35;;;3.20;90.40;;;;;;5083954;28;20047;-73
2021/03/06 08:06:01;;;;;;;2.00;0.77;;;3.20;90.50;;;;;;5083097;28;20044;-73
2021/03/06 08:08:33;;;;;;;8.43;0.57;;;3.20;90.40;;;;;;5084959;28;20040;-73
2021/03/06 08:11:15;;;;;;;2.25;0.57;;;3.20;90.50;;;;;;5067228;28;20043;-73
2021/03/06 08:13:49;;;;;;;4.95;0.43;;;3.30;90.40;;;;;;5088116;28;20079;-73
2021/03/06 08:18:50;;;;;;;10.18;2.47;;;3.40;90.40;;;;;;5081076;28;20044;-73
2021/03/06 08:21:27;;;;;;;2.25;0.40;;;3.40;90.80;;;;;;5078356;28;20039;-73
2021/03/06 08:24:14;;;;;;;1.77;0.73;;;3.50;91.10;;;;;;5082626;28;20062;-73
2021/03/06 08:26:52;;;;;;;2.42;0.68;;;3.70;91.20;;;;;;5064356;28;20049;-74
2021/03/06 08:29:24;;;;;;;4.32;0.60;;;3.80;91.10;;;;;;5076323;28;20068;-74
2021/03/06 08:32:11;;;;;;;5.63;0.40;;;3.90;91.20;;;;;;5073421;28;20052;-74
2021/03/06 08:34:45;;;;;;;2.47;0.40;;;4.00;91.10;;;;;;5082615;28;20044;-74
2021/03/06 08:37:19;;;;;;;3.10;0.88;;;4.10;91.20;;;;;;5065143;28;20421;-74
2021/03/06 08:40:05;;;;;;;4.30;0.45;;;4.10;91.20;;;;;;5080088;28;20040;-74
2021/03/06 08:42:56;;;;;;;4.53;0.30;;;4.20;91.20;;;;;;5076610;28;20056;-74
2021/03/06 08:45:27;;;;;;;5.80;0.60;;;4.30;91.50;;;;;;5085893;28;20090;-74
2021/03/06 08:48:01;;;;;;;2.58;0.70;;;4.40;91.30;;;;;;5087214;28;20142;-74
2021/03/06 08:50:30;;;;;;;4.22;0.45;;;4.50;91.50;;;;;;5063820;28;20494;-74
2021/03/06 08:53:05;;;;;;;2.75;0.70;;;4.70;91.70;;;;;;5056553;28;20040;-74
2021/03/06 08:55:34;;;;;;;5.32;0.32;;;5.00;91.90;;;;;;5059816;28;20131;-74
2021/03/06 08:58:05;;;;;;;5.72;0.35;;;5.50;92.00;;;;;;5065742;28;20089;-74
2021/03/06 09:00:37;;;;;;;6.43;0.32;;;5.60;91.30;;;;;;5080735;28;20122;-74
2021/03/06 09:03:12;;;;;;;3.40;0.30;;;5.60;91.10;;;;;;5084642;28;20040;-74
2021/03/06 09:05:39;;;;;;;4.40;0.82;;;5.70;90.90;;;;;;5083675;28;20052;-74
2021/03/06 09:08:05;;;;;;;2.92;0.22;;;5.70;90.90;;;;;;5086432;28;20390;-74
2021/03/06 09:10:41;;;;;;;1.88;0.32;;;5.70;90.90;;;;;;5068909;28;20036;-74
2021/03/06 09:13:15;;;;;;;4.15;0.77;;;5.70;90.90;;;;;;5080787;28;20043;-74
2021/03/06 09:16:03;;;;;;;7.53;0.55;;;5.80;91.20;;;;;;5060321;28;20383;-74
2021/03/06 09:18:38;;;;;;;2.47;0.30;;;5.90;91.30;;;;;;5072104;28;20079;-74
2021/03/06 09:21:08;;;;;;;3.53;0.30;;;6.00;91.20;;;;;;5081771;28;20037;-74
2021/03/06 09:23:35;;;;;;;3.30;0.28;;;6.10;91.10;;;;;;5076535;28;20088;-74
2021/03/06 09:26:13;;;;;;;4.25;0.93;;;6.20;91.00;;;;;;5084625;28;20325;-75
2021/03/06 09:28:39;;;;;;;4.13;0.65;;;6.30;91.10;;;;;;5083909;28;20036;-74
2021/03/06 09:31:14;;;;;;;1.95;0.20;;;6.30;90.80;;;;;;5049852;28;20050;-74
2021/03/06 09:33:40;;;;;;;2.28;0.45;;;6.20;90.60;;;;;;5086567;28;20063;-74
2021/03/06 09:36:09;;;;;;;0.43;0.10;;;6.10;90.40;;;;;;5087777;28;20043;-74
2021/03/06 09:38:43;;;;;;;4.80;0.57;;;6.10;90.50;;;;;;5067192;28;20344;-74
2021/03/06 09:41:10;;;;;;;3.15;0.20;;;6.20;90.50;;;;;;5089971;28;20800;-74
2021/03/06 09:43:37;;;;;;;3.85;0.85;;;6.20;90.40;;;;;;5090178;28;20047;-74
2021/03/06 09:46:15;;;;;;;7.97;1.48;;;6.30;90.50;;;;;;5065807;28;20044;-74
2021/03/06 09:49:09;;;;;;;3.58;0.15;;;6.40;90.40;;;;;;5062592;28;20119;-74
2021/03/06 09:51:44;;;;;;;4.10;0.90;;;6.50;90.20;;;;;;5078301;28;20150;-74
2021/03/06 09:54:12;;;;;;;4.28;0.40;;;6.60;90.40;;;;;;5084354;28;20123;-74
2021/03/06 09:56:47;;;;;;;1.58;0.22;;;6.70;90.00;;;;;;5086467;28;20040;-74
2021/03/06 09:59:13;;;;;;;7.13;0.20;;;6.80;90.10;;;;;;5087130;28;20324;-74
2021/03/06 10:01:39;;;;;;;2.55;0.20;;;6.90;89.50;;;;;;5089051;28;20065;-74
2021/03/06 10:04:19;;;;;;;4.47;0.40;;;6.90;89.00;;;;;;5086534;28;20061;-74
2021/03/06 10:06:48;;;;;;;2.28;0.93;;;7.10;90.10;;;;;;5090810;28;20048;-74
2021/03/06 10:09:16;;;;;;;3.60;0.20;;;7.30;90.00;;;;;;5049525;28;20384;-74
2021/03/06 10:11:50;;;;;;;3.58;0.20;;;7.40;89.40;;;;;;5084923;28;20044;-74
2021/03/06 10:14:21;;;;;;;2.15;0.30;;;7.40;89.50;;;;;;5079862;28;20121;-74
2021/03/06 10:16:56;;;;;;;3.15;0.30;;;7.40;89.20;;;;;;5068280;28;20043;-74
2021/03/06 10:19:24;;;;;;;3.92;0.20;;;7.50;89.20;;;;;;5083014;28;20516;-74
2021/03/06 10:22:05;;;;;;;3.47;0.22;;;7.50;88.80;;;;;;5087292;28;20044;-74
2021/03/06 10:24:50;;;;;;;2.10;1.00;;;7.50;88.90;;;;;;5073271;28;20073;-75
2021/03/06 10:27:17;;;;;;;4.40;0.20;;;7.60;88.80;;;;;;5047544;28;20044;-74
2021/03/06 10:29:43;;;;;;;3.08;0.25;;;7.70;88.90;;;;;;5083267;28;20044;-74
2021/03/06 10:32:09;;;;;;;3.42;0.20;;;7.80;87.90;;;;;;5068044;28;20036;-74
2021/03/06 10:34:36;;;;;;;2.15;0.30;;;7.90;88.30;;;;;;5087047;28;20680;-74
2021/03/06 10:37:13;;;;;;;4.53;0.30;;;7.90;87.50;;;;;;5088439;28;20127;-74
2021/03/06 10:40:02;;;;;;;3.05;0.20;;;7.90;87.30;;;;;;5086519;28;20472;-74
2021/03/06 10:42:48;;;;;;;3.35;0.38;;;7.80;86.00;;;;;;5066279;28;20036;-74
2021/03/06 10:45:28;;;;;;;2.88;0.17;;;7.70;85.60;;;;;;5078704;28;20506;-74
2021/03/06 10:47:56;;;;;;;4.78;0.40;;;7.60;85.20;;;;;;5059733;28;20048;-74
2021/03/06 10:50:24;;;;;;;3.55;0.30;;;7.50;86.60;;;;;;5080975;28;20068;-74
2021/03/06 10:52:51;;;;;;;6.35;0.60;;;7.50;87.60;;;;;;5086319;28;20040;-74
2021/03/06 10:55:31;;;;;;;3.35;0.35;;;7.50;87.60;;;;;;5083810;28;20036;-74
2021/03/06 10:57:57;;;;;;;2.35;0.30;;;7.60;86.60;;;;;;5072143;28;20505;-74
2021/03/06 11:00:23;;;;;;;6.68;0.30;;;7.60;87.20;;;;;;5087271;28;20028;-74
2021/03/06 11:02:57;;;;;;;2.28;0.20;;;7.60;87.70;;;;;;5054487;28;20051;-74
2021/03/06 11:05:24;;;;;;;;;;;7.70;87.60;;;;;;5086878;28;20044;-74
2021/03/06 11:07:50;;;;;;;3.50;0.35;;;7.70;85.30;;;;;;5080630;28;19931;-74
2021/03/06 11:10:18;;;;;;;1.45;0.10;;;7.70;85.50;;;;;;5082871;28;20277;-74
2021/03/06 11:13:10;;;;;;;2.03;0.50;;;7.70;85.20;;;;;;5081741;28;20123;-74
2021/03/06 11:15:54;;;;;;;2.60;0.57;;;7.50;82.90;;;;;;5078362;28;20055;-74
2021/03/06 11:18:20;;;;;;;1.50;0.57;;;7.40;85.50;;;;;;5077460;28;20086;-75
2021/03/06 11:20:49;;;;;;;3.28;0.20;;;7.50;86.60;;;;;;5084708;28;20040;-74
2021/03/06 11:23:15;;;;;;;2.20;0.20;;;7.60;86.30;;;;;;5061868;28;20438;-74
2021/03/06 11:25:41;;;;;;;2.10;0.13;;;7.70;85.00;;;;;;5085766;28;20044;-74
2021/03/06 11:28:14;;;;;;;1.67;0.10;;;7.80;85.50;;;;;;5065365;28;20068;-74
2021/03/06 11:30:42;;;;;;;2.33;0.30;;;7.90;85.00;;;;;;5087827;28;20036;-74
2021/03/06 11:33:10;;;;;;;2.20;0.20;;;8.00;86.00;;;;;;5085862;28;20430;-74
2021/03/06 11:35:37;;;;;;;1.65;0.10;;;8.10;85.30;;;;;;5088624;28;20080;-75
2021/03/06 11:38:05;;;;;;;2.30;0.63;;;8.10;84.00;;;;;;5067276;28;20487;-74
2021/03/06 11:40:33;;;;;;;3.78;0.10;;;8.10;84.20;;;;;;5060638;28;20108;-74
2021/03/06 11:42:59;;;;;;;4.50;0.20;;;8.00;83.00;;;;;;5082811;28;20043;-74
2021/03/06 11:45:25;;;;;;;6.28;0.75;;;7.80;83.20;;;;;;5079750;28;20044;-74
2021/03/06 11:47:52;;;;;;;0.52;0.20;;;7.50;83.30;;;;;;5067179;28;20043;-74
2021/03/06 11:50:23;;;;;;;1.65;0.10;;;7.30;84.00;;;;;;5082024;28;20143;-74
2021/03/06 11:52:49;;;;;;;4.53;0.10;;;7.20;82.80;;;;;;5086445;28;20135;-74
2021/03/06 11:55:15;;;;;;;2.80;0.10;;;7.10;83.40;;;;;;5084890;28;20202;-74
2021/03/06 11:57:42;;;;;;;2.72;0.20;;;7.00;84.40;;;;;;5087893;28;20344;-74
2021/03/06 12:00:14;;;;;;;2.00;0.30;;;7.00;84.60;;;;;;5053260;28;20127;-75
2021/03/06 12:02:40;;;;;;;2.17;0.13;;;7.00;84.00;;;;;;5082904;28;20050;-74
2021/03/06 12:05:07;;;;;;;2.40;0.22;;;7.00;84.20;;;;;;5064234;28;20523;-74
2021/03/06 12:07:34;;;;;;;4.43;0.47;;;7.00;84.20;;;;;;5079341;28;20166;-74
2021/03/06 12:10:00;;;;;;;1.58;0.20;;;7.00;84.50;;;;;;5084126;28;20059;-74
2021/03/06 12:12:26;;;;;;;0.73;0.10;;;7.00;84.50;;;;;;5063524;28;20044;-75
2021/03/06 12:14:52;;;;;;;1.98;0.25;;;7.00;83.60;;;;;;5063965;28;20044;-75
2021/03/06 12:17:18;;;;;;;1.83;0.10;;;7.00;84.20;;;;;;5084199;28;20133;-75
2021/03/06 12:19:43;;;;;;;1.95;0.20;;;7.10;84.20;;;;;;5076129;28;20060;-75
2021/03/06 12:22:09;;;;;;;2.03;0.10;;;7.10;84.40;;;;;;5069419;28;20040;-75
2021/03/06 12:24:35;;;;;;;2.83;0.35;;;7.10;84.00;;;;;;5061427;28;20040;-75
2021/03/06 12:27:01;;;;;;;1.27;0.20;;;7.10;83.40;;;;;;5068435;28;20042;-75
2021/03/06 12:29:27;;;;;;;2.20;0.10;;;7.10;83.40;;;;;;5085744;28;20126;-75
2021/03/06 12:31:53;;;;;;;1.48;0.32;;;7.10;82.70;;;;;;5069543;28;20129;-74
2021/03/06 12:34:19;;;;;;;1.20;0.10;;;7.10;82.80;;;;;;5087933;28;20056;-75
2021/03/06 12:36:45;;;;;;;1.48;0.10;;;7.10;83.40;;;;;;5058823;28;20507;-75
2021/03/06 12:39:11;;;;;;;5.65;0.40;;;7.20;82.60;;;;;;5080007;28;20043;-75
2021/03/06 12:41:38;;;;;;;2.05;0.10;;;7.10;83.20;;;;;;5080256;28;20306;-75
2021/03/06 12:44:04;;;;;;;1.05;0.10;;;7.20;82.30;;;;;;5082914;28;20051;-75
2021/03/06 12:46:31;;;;;;;1.80;0.15;;;7.20;82.60;;;;;;5083533;28;20055;-75
2021/03/06 12:48:58;;;;;;;2.65;0.52;;;7.20;83.10;;;;;;5066531;28;20122;-74
2021/03/06 12:51:24;;;;;;;0.93;0.13;;;7.30;82.20;;;;;;5086084;28;20036;-75
2021/03/06 12:53:50;;;;;;;1.23;0.47;;;7.40;82.70;;;;;;5085444;28;20094;-74
2021/03/06 12:56:15;;;;;;;4.03;0.30;;;7.40;82.00;;;;;;5090544;28;20693;-75
2021/03/06 12:58:41;;;;;;;0.77;0.13;;;7.40;81.20;;;;;;5047690;28;20036;-75
2021/03/06 13:01:07;;;;;;;1.70;0.43;;;7.50;81.00;;;;;;5065633;28;20119;-75
2021/03/06 13:03:33;;;;;;;2.58;0.28;;;7.50;81.30;;;;;;5067887;28;20047;-75
2021/03/06 13:05:59;;;;;;;1.27;0.10;;;7.60;82.00;;;;;;5067208;28;20448;-75
2021/03/06 13:08:27;;;;;;;1.92;0.35;;;7.70;81.80;;;;;;5087882;28;20032;-75
2021/03/06 13:10:54;;;;;;;3.20;0.22;;;7.70;80.80;;;;;;5065449;28;20044;-75
2021/03/06 13:13:20;;;;;;;0.70;0.20;;;7.60;81.20;;;;;;5089492;28;20413;-75